sensor_id;sensor_type;location;lat;lon;timestamp;P1;durP1;ratioP1;P2;durP2;ratioP2
11006;SDS011;8186;57.652;11.968;2022-11-15T00:01:21;7.40;;;4.73;;
11006;SDS011;8186;57.652;11.968;2022-11-15T00:03:51;5.53;;;4.50;;
11006;SDS011;8186;57.652;11.968;2022-11-15T00:06:19;7.37;;;5.07;;
11006;SDS011;8186;57.652;11.968;2022-11-15T00:08:46;7.53;;;5.17;;
11006;SDS011;8186;57.652;11.968;2022-11-15T00:11:18;5.60;;;4.90;;
11006;SDS011;8186;57.652;11.968;2022-11-15T00:13:45;6.80;;;5.10;;
11006;SDS011;8186;57.652;11.968;2022-11-15T00:16:12;5.53;;;4.93;;
11006;SDS011;8186;57.652;11.968;2022-11-15T00:18:39;5.17;;;4.27;;
11006;SDS011;8186;57.652;11.968;2022-11-15T00:21:07;6.10;;;4.80;;
11006;SDS011;8186;57.652;11.968;2022-11-15T00:23:36;6.27;;;5.07;;
11006;SDS011;8186;57.652;11.968;2022-11-15T00:26:04;7.03;;;5.20;;
11006;SDS011;8186;57.652;11.968;2022-11-15T00:28:32;7.83;;;4.80;;
11006;SDS011;8186;57.652;11.968;2022-11-15T00:31:02;6.47;;;5.07;;
11006;SDS011;8186;57.652;11.968;2022-11-15T00:33:32;5.10;;;4.60;;
11006;SDS011;8186;57.652;11.968;2022-11-15T00:36:00;6.37;;;5.10;;
11006;SDS011;8186;57.652;11.968;2022-11-15T00:38:30;5.43;;;4.67;;
11006;SDS011;8186;57.652;11.968;2022-11-15T00:40:57;5.93;;;4.77;;
11006;SDS011;8186;57.652;11.968;2022-11-15T00:43:24;4.90;;;4.40;;
11006;SDS011;8186;57.652;11.968;2022-11-15T00:45:53;6.57;;;5.33;;
11006;SDS011;8186;57.652;11.968;2022-11-15T00:48:20;6.67;;;5.00;;
11006;SDS011;8186;57.652;11.968;2022-11-15T00:50:47;6.57;;;4.57;;
11006;SDS011;8186;57.652;11.968;2022-11-15T00:53:14;7.13;;;5.13;;
11006;SDS011;8186;57.652;11.968;2022-11-15T00:55:42;7.53;;;4.90;;
11006;SDS011;8186;57.652;11.968;2022-11-15T00:58:09;6.70;;;4.73;;
11006;SDS011;8186;57.652;11.968;2022-11-15T01:00:36;6.13;;;4.47;;
11006;SDS011;8186;57.652;11.968;2022-11-15T01:03:05;5.83;;;5.20;;
11006;SDS011;8186;57.652;11.968;2022-11-15T01:05:32;5.80;;;4.90;;
11006;SDS011;8186;57.652;11.968;2022-11-15T01:07:59;5.23;;;4.33;;
11006;SDS011;8186;57.652;11.968;2022-11-15T01:10:26;6.93;;;4.57;;
11006;SDS011;8186;57.652;11.968;2022-11-15T01:12:53;5.30;;;4.80;;
11006;SDS011;8186;57.652;11.968;2022-11-15T01:15:20;8.27;;;4.93;;
11006;SDS011;8186;57.652;11.968;2022-11-15T01:17:51;8.23;;;4.80;;
11006;SDS011;8186;57.652;11.968;2022-11-15T01:20:19;5.13;;;4.57;;
11006;SDS011;8186;57.652;11.968;2022-11-15T01:22:46;6.73;;;5.47;;
11006;SDS011;8186;57.652;11.968;2022-11-15T01:25:13;6.53;;;5.07;;
11006;SDS011;8186;57.652;11.968;2022-11-15T01:27:40;6.63;;;5.27;;
11006;SDS011;8186;57.652;11.968;2022-11-15T01:30:08;5.90;;;5.30;;
11006;SDS011;8186;57.652;11.968;2022-11-15T01:32:37;6.20;;;5.53;;
11006;SDS011;8186;57.652;11.968;2022-11-15T01:35:04;6.00;;;5.10;;
11006;SDS011;8186;57.652;11.968;2022-11-15T01:37:33;8.63;;;5.23;;
11006;SDS011;8186;57.652;11.968;2022-11-15T01:40:00;5.73;;;5.00;;
11006;SDS011;8186;57.652;11.968;2022-11-15T01:42:28;5.93;;;5.30;;
11006;SDS011;8186;57.652;11.968;2022-11-15T01:44:55;5.47;;;4.97;;
11006;SDS011;8186;57.652;11.968;2022-11-15T01:47:23;5.87;;;4.83;;
11006;SDS011;8186;57.652;11.968;2022-11-15T01:49:53;6.00;;;4.83;;
11006;SDS011;8186;57.652;11.968;2022-11-15T01:52:23;5.47;;;4.97;;
11006;SDS011;8186;57.652;11.968;2022-11-15T01:54:55;11.00;;;5.33;;
11006;SDS011;8186;57.652;11.968;2022-11-15T01:57:24;5.73;;;5.10;;
11006;SDS011;8186;57.652;11.968;2022-11-15T01:59:51;6.00;;;4.80;;
11006;SDS011;8186;57.652;11.968;2022-11-15T02:02:19;8.07;;;5.47;;
11006;SDS011;8186;57.652;11.968;2022-11-15T02:04:46;6.73;;;5.30;;
11006;SDS011;8186;57.652;11.968;2022-11-15T02:07:15;5.93;;;5.23;;
11006;SDS011;8186;57.652;11.968;2022-11-15T02:09:43;5.30;;;4.50;;
11006;SDS011;8186;57.652;11.968;2022-11-15T02:12:13;5.67;;;5.10;;
11006;SDS011;8186;57.652;11.968;2022-11-15T02:14:42;6.40;;;5.10;;
11006;SDS011;8186;57.652;11.968;2022-11-15T02:17:13;5.57;;;4.97;;
11006;SDS011;8186;57.652;11.968;2022-11-15T02:19:56;7.27;;;5.37;;
11006;SDS011;8186;57.652;11.968;2022-11-15T02:22:46;7.13;;;4.67;;
11006;SDS011;8186;57.652;11.968;2022-11-15T02:25:30;5.53;;;5.03;;
11006;SDS011;8186;57.652;11.968;2022-11-15T02:28:09;7.60;;;5.03;;
11006;SDS011;8186;57.652;11.968;2022-11-15T02:30:45;7.87;;;4.97;;
11006;SDS011;8186;57.652;11.968;2022-11-15T02:33:18;7.10;;;5.50;;
11006;SDS011;8186;57.652;11.968;2022-11-15T02:35:54;6.97;;;5.07;;
11006;SDS011;8186;57.652;11.968;2022-11-15T02:38:26;6.30;;;5.47;;
11006;SDS011;8186;57.652;11.968;2022-11-15T02:40:58;6.47;;;5.23;;
11006;SDS011;8186;57.652;11.968;2022-11-15T02:43:34;6.50;;;5.53;;
11006;SDS011;8186;57.652;11.968;2022-11-15T02:46:23;6.10;;;5.37;;
11006;SDS011;8186;57.652;11.968;2022-11-15T02:49:08;5.03;;;4.53;;
11006;SDS011;8186;57.652;11.968;2022-11-15T02:51:37;7.67;;;5.00;;
11006;SDS011;8186;57.652;11.968;2022-11-15T02:54:11;6.20;;;4.90;;
11006;SDS011;8186;57.652;11.968;2022-11-15T02:56:39;5.83;;;5.20;;
11006;SDS011;8186;57.652;11.968;2022-11-15T02:59:15;6.60;;;5.10;;
11006;SDS011;8186;57.652;11.968;2022-11-15T03:01:59;6.10;;;4.93;;
11006;SDS011;8186;57.652;11.968;2022-11-15T03:04:35;6.87;;;5.77;;
11006;SDS011;8186;57.652;11.968;2022-11-15T03:07:06;5.27;;;4.73;;
11006;SDS011;8186;57.652;11.968;2022-11-15T03:09:39;5.53;;;4.83;;
11006;SDS011;8186;57.652;11.968;2022-11-15T03:12:10;5.60;;;4.80;;
11006;SDS011;8186;57.652;11.968;2022-11-15T03:14:40;6.03;;;5.30;;
11006;SDS011;8186;57.652;11.968;2022-11-15T03:17:15;9.63;;;5.23;;
11006;SDS011;8186;57.652;11.968;2022-11-15T03:19:44;5.97;;;5.37;;
11006;SDS011;8186;57.652;11.968;2022-11-15T03:22:14;5.60;;;5.00;;
11006;SDS011;8186;57.652;11.968;2022-11-15T03:24:43;6.33;;;5.73;;
11006;SDS011;8186;57.652;11.968;2022-11-15T03:27:12;8.77;;;5.80;;
11006;SDS011;8186;57.652;11.968;2022-11-15T03:29:43;6.13;;;5.53;;
11006;SDS011;8186;57.652;11.968;2022-11-15T03:32:14;7.87;;;5.90;;
11006;SDS011;8186;57.652;11.968;2022-11-15T03:34:44;5.67;;;5.17;;
11006;SDS011;8186;57.652;11.968;2022-11-15T03:37:13;7.07;;;6.23;;
11006;SDS011;8186;57.652;11.968;2022-11-15T03:39:41;6.47;;;5.50;;
11006;SDS011;8186;57.652;11.968;2022-11-15T03:42:12;6.47;;;5.30;;
11006;SDS011;8186;57.652;11.968;2022-11-15T03:44:46;7.07;;;5.80;;
11006;SDS011;8186;57.652;11.968;2022-11-15T03:47:17;7.13;;;5.77;;
11006;SDS011;8186;57.652;11.968;2022-11-15T03:49:49;7.70;;;6.40;;
11006;SDS011;8186;57.652;11.968;2022-11-15T03:52:19;6.53;;;5.93;;
11006;SDS011;8186;57.652;11.968;2022-11-15T03:54:53;6.87;;;6.23;;
11006;SDS011;8186;57.652;11.968;2022-11-15T03:57:20;6.50;;;5.70;;
11006;SDS011;8186;57.652;11.968;2022-11-15T03:59:48;8.77;;;6.30;;
11006;SDS011;8186;57.652;11.968;2022-11-15T04:02:18;7.77;;;6.40;;
11006;SDS011;8186;57.652;11.968;2022-11-15T04:04:45;8.90;;;6.80;;
11006;SDS011;8186;57.652;11.968;2022-11-15T04:07:12;7.17;;;6.47;;
11006;SDS011;8186;57.652;11.968;2022-11-15T04:09:39;7.63;;;6.43;;
11006;SDS011;8186;57.652;11.968;2022-11-15T04:12:20;7.80;;;7.00;;
11006;SDS011;8186;57.652;11.968;2022-11-15T04:14:56;8.47;;;6.67;;
11006;SDS011;8186;57.652;11.968;2022-11-15T04:17:39;8.73;;;7.40;;
11006;SDS011;8186;57.652;11.968;2022-11-15T04:20:08;9.03;;;6.13;;
11006;SDS011;8186;57.652;11.968;2022-11-15T04:22:54;7.93;;;7.13;;
11006;SDS011;8186;57.652;11.968;2022-11-15T04:25:39;7.53;;;6.73;;
11006;SDS011;8186;57.652;11.968;2022-11-15T04:28:06;8.80;;;7.80;;
11006;SDS011;8186;57.652;11.968;2022-11-15T04:30:33;9.00;;;8.07;;
11006;SDS011;8186;57.652;11.968;2022-11-15T04:33:02;11.20;;;7.43;;
11006;SDS011;8186;57.652;11.968;2022-11-15T04:35:30;8.47;;;7.30;;
11006;SDS011;8186;57.652;11.968;2022-11-15T04:38:00;7.93;;;7.13;;
11006;SDS011;8186;57.652;11.968;2022-11-15T04:40:27;9.43;;;7.87;;
11006;SDS011;8186;57.652;11.968;2022-11-15T04:42:54;9.57;;;7.30;;
11006;SDS011;8186;57.652;11.968;2022-11-15T04:45:22;8.43;;;7.47;;
11006;SDS011;8186;57.652;11.968;2022-11-15T04:47:49;8.37;;;7.23;;
11006;SDS011;8186;57.652;11.968;2022-11-15T04:50:17;9.07;;;7.17;;
11006;SDS011;8186;57.652;11.968;2022-11-15T04:52:50;12.00;;;7.57;;
11006;SDS011;8186;57.652;11.968;2022-11-15T04:55:17;9.87;;;7.67;;
11006;SDS011;8186;57.652;11.968;2022-11-15T04:57:47;9.33;;;7.97;;
11006;SDS011;8186;57.652;11.968;2022-11-15T05:00:17;8.50;;;7.60;;
11006;SDS011;8186;57.652;11.968;2022-11-15T05:02:44;10.70;;;7.90;;
11006;SDS011;8186;57.652;11.968;2022-11-15T05:05:30;8.33;;;6.70;;
11006;SDS011;8186;57.652;11.968;2022-11-15T05:07:57;10.30;;;7.07;;
11006;SDS011;8186;57.652;11.968;2022-11-15T05:10:24;8.27;;;6.13;;
11006;SDS011;8186;57.652;11.968;2022-11-15T05:12:51;8.47;;;6.80;;
11006;SDS011;8186;57.652;11.968;2022-11-15T05:15:18;10.00;;;7.93;;
11006;SDS011;8186;57.652;11.968;2022-11-15T05:17:45;7.63;;;6.77;;
11006;SDS011;8186;57.652;11.968;2022-11-15T05:20:12;8.30;;;7.10;;
11006;SDS011;8186;57.652;11.968;2022-11-15T05:22:41;7.73;;;6.77;;
11006;SDS011;8186;57.652;11.968;2022-11-15T05:25:08;9.73;;;6.93;;
11006;SDS011;8186;57.652;11.968;2022-11-15T05:27:35;8.47;;;6.47;;
11006;SDS011;8186;57.652;11.968;2022-11-15T05:30:02;7.57;;;6.40;;
11006;SDS011;8186;57.652;11.968;2022-11-15T05:32:30;8.73;;;6.80;;
11006;SDS011;8186;57.652;11.968;2022-11-15T05:34:57;7.77;;;6.63;;
11006;SDS011;8186;57.652;11.968;2022-11-15T05:37:24;7.70;;;6.90;;
11006;SDS011;8186;57.652;11.968;2022-11-15T05:39:52;8.43;;;7.00;;
11006;SDS011;8186;57.652;11.968;2022-11-15T05:42:21;8.30;;;7.03;;
11006;SDS011;8186;57.652;11.968;2022-11-15T05:44:48;7.47;;;6.77;;
11006;SDS011;8186;57.652;11.968;2022-11-15T05:47:16;9.17;;;6.37;;
11006;SDS011;8186;57.652;11.968;2022-11-15T05:49:45;8.20;;;7.13;;
11006;SDS011;8186;57.652;11.968;2022-11-15T05:52:13;7.97;;;6.73;;
11006;SDS011;8186;57.652;11.968;2022-11-15T05:54:41;7.83;;;6.50;;
11006;SDS011;8186;57.652;11.968;2022-11-15T05:57:10;8.60;;;6.63;;
11006;SDS011;8186;57.652;11.968;2022-11-15T05:59:37;7.40;;;6.07;;
11006;SDS011;8186;57.652;11.968;2022-11-15T06:02:06;10.40;;;6.60;;
11006;SDS011;8186;57.652;11.968;2022-11-15T06:04:36;7.17;;;6.13;;
11006;SDS011;8186;57.652;11.968;2022-11-15T06:07:03;6.90;;;6.20;;
11006;SDS011;8186;57.652;11.968;2022-11-15T06:09:34;10.63;;;6.43;;
11006;SDS011;8186;57.652;11.968;2022-11-15T06:12:01;7.20;;;6.40;;
11006;SDS011;8186;57.652;11.968;2022-11-15T06:14:30;7.47;;;6.63;;
11006;SDS011;8186;57.652;11.968;2022-11-15T06:16:57;9.87;;;6.07;;
11006;SDS011;8186;57.652;11.968;2022-11-15T06:19:35;8.03;;;6.60;;
11006;SDS011;8186;57.652;11.968;2022-11-15T06:22:11;7.97;;;6.50;;
11006;SDS011;8186;57.652;11.968;2022-11-15T06:24:38;6.47;;;5.77;;
11006;SDS011;8186;57.652;11.968;2022-11-15T06:27:05;7.47;;;6.20;;
11006;SDS011;8186;57.652;11.968;2022-11-15T06:29:34;8.20;;;6.27;;
11006;SDS011;8186;57.652;11.968;2022-11-15T06:32:02;9.00;;;6.20;;
11006;SDS011;8186;57.652;11.968;2022-11-15T06:34:32;8.33;;;6.30;;
11006;SDS011;8186;57.652;11.968;2022-11-15T06:37:01;7.47;;;6.07;;
11006;SDS011;8186;57.652;11.968;2022-11-15T06:39:28;7.13;;;6.43;;
11006;SDS011;8186;57.652;11.968;2022-11-15T06:41:55;9.40;;;6.70;;
11006;SDS011;8186;57.652;11.968;2022-11-15T06:44:22;7.47;;;5.83;;
11006;SDS011;8186;57.652;11.968;2022-11-15T06:46:50;7.07;;;6.37;;
11006;SDS011;8186;57.652;11.968;2022-11-15T06:49:17;6.90;;;5.90;;
11006;SDS011;8186;57.652;11.968;2022-11-15T06:51:44;8.37;;;6.50;;
11006;SDS011;8186;57.652;11.968;2022-11-15T06:54:11;8.30;;;6.43;;
11006;SDS011;8186;57.652;11.968;2022-11-15T06:56:38;6.67;;;5.67;;
11006;SDS011;8186;57.652;11.968;2022-11-15T06:59:05;7.00;;;6.07;;
11006;SDS011;8186;57.652;11.968;2022-11-15T07:01:32;7.20;;;6.30;;
11006;SDS011;8186;57.652;11.968;2022-11-15T07:04:01;6.53;;;5.27;;
11006;SDS011;8186;57.652;11.968;2022-11-15T07:06:28;9.90;;;5.80;;
11006;SDS011;8186;57.652;11.968;2022-11-15T07:08:55;8.07;;;5.50;;
11006;SDS011;8186;57.652;11.968;2022-11-15T07:11:22;8.13;;;5.73;;
11006;SDS011;8186;57.652;11.968;2022-11-15T07:13:51;7.17;;;5.30;;
11006;SDS011;8186;57.652;11.968;2022-11-15T07:16:19;7.87;;;5.70;;
11006;SDS011;8186;57.652;11.968;2022-11-15T07:18:46;7.83;;;5.27;;
11006;SDS011;8186;57.652;11.968;2022-11-15T07:21:14;8.23;;;5.53;;
11006;SDS011;8186;57.652;11.968;2022-11-15T07:23:41;9.20;;;6.30;;
11006;SDS011;8186;57.652;11.968;2022-11-15T07:26:08;6.20;;;5.47;;
11006;SDS011;8186;57.652;11.968;2022-11-15T07:28:35;7.33;;;4.80;;
11006;SDS011;8186;57.652;11.968;2022-11-15T07:31:03;8.37;;;5.60;;
11006;SDS011;8186;57.652;11.968;2022-11-15T07:33:31;7.70;;;5.10;;
11006;SDS011;8186;57.652;11.968;2022-11-15T07:35:58;7.47;;;5.43;;
11006;SDS011;8186;57.652;11.968;2022-11-15T07:38:28;8.33;;;5.50;;
11006;SDS011;8186;57.652;11.968;2022-11-15T07:40:56;6.60;;;4.77;;
11006;SDS011;8186;57.652;11.968;2022-11-15T07:43:24;6.97;;;5.30;;
11006;SDS011;8186;57.652;11.968;2022-11-15T07:45:53;5.33;;;4.37;;
11006;SDS011;8186;57.652;11.968;2022-11-15T07:48:20;6.87;;;4.97;;
11006;SDS011;8186;57.652;11.968;2022-11-15T07:50:47;5.83;;;4.53;;
11006;SDS011;8186;57.652;11.968;2022-11-15T07:53:15;7.23;;;4.63;;
11006;SDS011;8186;57.652;11.968;2022-11-15T07:55:44;7.30;;;4.57;;
11006;SDS011;8186;57.652;11.968;2022-11-15T07:58:12;5.90;;;4.40;;
11006;SDS011;8186;57.652;11.968;2022-11-15T08:00:39;5.40;;;4.60;;
11006;SDS011;8186;57.652;11.968;2022-11-15T08:03:08;5.73;;;4.83;;
11006;SDS011;8186;57.652;11.968;2022-11-15T08:05:36;6.13;;;4.90;;
11006;SDS011;8186;57.652;11.968;2022-11-15T08:08:04;6.87;;;4.63;;
11006;SDS011;8186;57.652;11.968;2022-11-15T08:10:32;5.67;;;4.70;;
11006;SDS011;8186;57.652;11.968;2022-11-15T08:13:01;7.07;;;4.47;;
11006;SDS011;8186;57.652;11.968;2022-11-15T08:15:29;5.93;;;4.50;;
11006;SDS011;8186;57.652;11.968;2022-11-15T08:17:57;5.57;;;4.67;;
11006;SDS011;8186;57.652;11.968;2022-11-15T08:20:25;5.07;;;4.53;;
11006;SDS011;8186;57.652;11.968;2022-11-15T08:22:54;8.20;;;4.93;;
11006;SDS011;8186;57.652;11.968;2022-11-15T08:25:22;5.93;;;5.20;;
11006;SDS011;8186;57.652;11.968;2022-11-15T08:27:50;5.10;;;4.60;;
11006;SDS011;8186;57.652;11.968;2022-11-15T08:30:20;6.30;;;4.60;;
11006;SDS011;8186;57.652;11.968;2022-11-15T08:32:49;6.37;;;4.97;;
11006;SDS011;8186;57.652;11.968;2022-11-15T08:35:17;5.47;;;4.83;;
11006;SDS011;8186;57.652;11.968;2022-11-15T08:37:44;5.73;;;4.63;;
11006;SDS011;8186;57.652;11.968;2022-11-15T08:40:11;7.57;;;5.30;;
11006;SDS011;8186;57.652;11.968;2022-11-15T08:42:39;7.23;;;4.60;;
11006;SDS011;8186;57.652;11.968;2022-11-15T08:45:06;5.50;;;4.90;;
11006;SDS011;8186;57.652;11.968;2022-11-15T08:47:36;5.90;;;5.00;;
11006;SDS011;8186;57.652;11.968;2022-11-15T08:50:06;6.20;;;5.27;;
11006;SDS011;8186;57.652;11.968;2022-11-15T08:52:33;5.70;;;4.90;;
11006;SDS011;8186;57.652;11.968;2022-11-15T08:55:04;5.70;;;4.80;;
11006;SDS011;8186;57.652;11.968;2022-11-15T08:57:32;5.97;;;4.53;;
11006;SDS011;8186;57.652;11.968;2022-11-15T08:59:59;7.10;;;5.17;;
11006;SDS011;8186;57.652;11.968;2022-11-15T09:02:26;5.73;;;4.97;;
11006;SDS011;8186;57.652;11.968;2022-11-15T09:04:55;6.27;;;5.07;;
11006;SDS011;8186;57.652;11.968;2022-11-15T09:07:22;6.13;;;4.57;;
11006;SDS011;8186;57.652;11.968;2022-11-15T09:09:49;6.70;;;4.60;;
11006;SDS011;8186;57.652;11.968;2022-11-15T09:12:16;5.70;;;4.53;;
11006;SDS011;8186;57.652;11.968;2022-11-15T09:14:44;5.33;;;4.50;;
11006;SDS011;8186;57.652;11.968;2022-11-15T09:17:11;5.70;;;4.73;;
11006;SDS011;8186;57.652;11.968;2022-11-15T09:19:38;5.70;;;4.33;;
11006;SDS011;8186;57.652;11.968;2022-11-15T09:22:10;5.27;;;4.70;;
11006;SDS011;8186;57.652;11.968;2022-11-15T09:24:37;5.50;;;4.60;;
11006;SDS011;8186;57.652;11.968;2022-11-15T09:27:04;5.10;;;4.60;;
11006;SDS011;8186;57.652;11.968;2022-11-15T09:29:32;5.47;;;4.80;;
11006;SDS011;8186;57.652;11.968;2022-11-15T09:31:59;5.70;;;4.67;;
11006;SDS011;8186;57.652;11.968;2022-11-15T09:34:26;4.73;;;4.10;;
11006;SDS011;8186;57.652;11.968;2022-11-15T09:36:53;5.40;;;4.07;;
11006;SDS011;8186;57.652;11.968;2022-11-15T09:39:22;6.17;;;4.57;;
11006;SDS011;8186;57.652;11.968;2022-11-15T09:41:56;6.03;;;4.57;;
11006;SDS011;8186;57.652;11.968;2022-11-15T09:44:34;6.13;;;4.70;;
11006;SDS011;8186;57.652;11.968;2022-11-15T09:47:28;5.30;;;3.93;;
11006;SDS011;8186;57.652;11.968;2022-11-15T09:50:08;5.73;;;4.40;;
11006;SDS011;8186;57.652;11.968;2022-11-15T09:52:37;5.17;;;4.27;;
11006;SDS011;8186;57.652;11.968;2022-11-15T09:55:08;5.87;;;4.47;;
11006;SDS011;8186;57.652;11.968;2022-11-15T09:57:44;8.63;;;4.07;;
11006;SDS011;8186;57.652;11.968;2022-11-15T10:00:16;5.20;;;3.97;;
11006;SDS011;8186;57.652;11.968;2022-11-15T10:02:49;4.80;;;4.20;;
11006;SDS011;8186;57.652;11.968;2022-11-15T10:05:27;7.23;;;4.50;;
11006;SDS011;8186;57.652;11.968;2022-11-15T10:07:56;4.73;;;4.10;;
11006;SDS011;8186;57.652;11.968;2022-11-15T10:10:29;7.57;;;4.47;;
11006;SDS011;8186;57.652;11.968;2022-11-15T10:12:59;6.13;;;4.20;;
11006;SDS011;8186;57.652;11.968;2022-11-15T10:15:26;5.13;;;4.60;;
11006;SDS011;8186;57.652;11.968;2022-11-15T10:17:59;4.97;;;4.47;;
11006;SDS011;8186;57.652;11.968;2022-11-15T10:20:34;5.93;;;4.90;;
11006;SDS011;8186;57.652;11.968;2022-11-15T10:23:10;4.57;;;4.00;;
11006;SDS011;8186;57.652;11.968;2022-11-15T10:25:40;5.23;;;4.50;;
11006;SDS011;8186;57.652;11.968;2022-11-15T10:28:09;5.77;;;4.53;;
11006;SDS011;8186;57.652;11.968;2022-11-15T10:30:41;4.70;;;4.20;;
11006;SDS011;8186;57.652;11.968;2022-11-15T10:33:11;6.70;;;4.20;;
11006;SDS011;8186;57.652;11.968;2022-11-15T10:35:44;4.93;;;4.07;;
11006;SDS011;8186;57.652;11.968;2022-11-15T10:38:11;4.17;;;3.73;;
11006;SDS011;8186;57.652;11.968;2022-11-15T10:40:39;4.67;;;4.13;;
11006;SDS011;8186;57.652;11.968;2022-11-15T10:43:15;5.57;;;4.73;;
11006;SDS011;8186;57.652;11.968;2022-11-15T10:45:43;6.23;;;4.30;;
11006;SDS011;8186;57.652;11.968;2022-11-15T10:48:23;5.23;;;4.50;;
11006;SDS011;8186;57.652;11.968;2022-11-15T10:50:51;6.87;;;4.30;;
11006;SDS011;8186;57.652;11.968;2022-11-15T10:53:27;5.33;;;4.17;;
11006;SDS011;8186;57.652;11.968;2022-11-15T10:55:59;5.93;;;4.20;;
11006;SDS011;8186;57.652;11.968;2022-11-15T10:58:32;4.83;;;3.87;;
11006;SDS011;8186;57.652;11.968;2022-11-15T11:01:13;4.77;;;4.13;;
11006;SDS011;8186;57.652;11.968;2022-11-15T11:03:42;5.37;;;4.50;;
11006;SDS011;8186;57.652;11.968;2022-11-15T11:06:12;5.70;;;3.77;;
11006;SDS011;8186;57.652;11.968;2022-11-15T11:08:40;6.70;;;4.40;;
11006;SDS011;8186;57.652;11.968;2022-11-15T11:11:09;4.70;;;4.20;;
11006;SDS011;8186;57.652;11.968;2022-11-15T11:13:37;5.00;;;4.47;;
11006;SDS011;8186;57.652;11.968;2022-11-15T11:19:11;5.13;;;4.03;;
11006;SDS011;8186;57.652;11.968;2022-11-15T11:21:46;4.80;;;4.13;;
11006;SDS011;8186;57.652;11.968;2022-11-15T11:24:20;6.03;;;3.90;;
11006;SDS011;8186;57.652;11.968;2022-11-15T11:26:57;5.53;;;4.10;;
11006;SDS011;8186;57.652;11.968;2022-11-15T11:29:33;4.40;;;4.00;;
11006;SDS011;8186;57.652;11.968;2022-11-15T11:32:13;7.60;;;3.80;;
11006;SDS011;8186;57.652;11.968;2022-11-15T11:34:56;5.20;;;3.97;;
11006;SDS011;8186;57.652;11.968;2022-11-15T11:37:29;5.50;;;3.20;;
11006;SDS011;8186;57.652;11.968;2022-11-15T11:40:05;5.37;;;4.03;;
11006;SDS011;8186;57.652;11.968;2022-11-15T11:42:44;5.50;;;3.73;;
11006;SDS011;8186;57.652;11.968;2022-11-15T11:45:21;6.93;;;3.47;;
11006;SDS011;8186;57.652;11.968;2022-11-15T11:47:57;4.73;;;3.83;;
11006;SDS011;8186;57.652;11.968;2022-11-15T11:50:27;5.33;;;3.53;;
11006;SDS011;8186;57.652;11.968;2022-11-15T11:52:56;6.13;;;3.93;;
11006;SDS011;8186;57.652;11.968;2022-11-15T11:55:25;4.20;;;3.80;;
11006;SDS011;8186;57.652;11.968;2022-11-15T11:57:59;3.80;;;3.40;;
11006;SDS011;8186;57.652;11.968;2022-11-15T12:00:31;5.43;;;3.70;;
11006;SDS011;8186;57.652;11.968;2022-11-15T12:03:03;5.03;;;3.33;;
11006;SDS011;8186;57.652;11.968;2022-11-15T12:05:36;4.38;;;3.85;;
11006;SDS011;8186;57.652;11.968;2022-11-15T12:08:09;5.17;;;3.30;;
11006;SDS011;8186;57.652;11.968;2022-11-15T12:10:52;6.40;;;3.07;;
11006;SDS011;8186;57.652;11.968;2022-11-15T12:13:23;4.53;;;3.40;;
11006;SDS011;8186;57.652;11.968;2022-11-15T12:15:53;5.00;;;2.97;;
11006;SDS011;8186;57.652;11.968;2022-11-15T12:18:30;4.27;;;3.10;;
11006;SDS011;8186;57.652;11.968;2022-11-15T12:20:58;4.57;;;3.23;;
11006;SDS011;8186;57.652;11.968;2022-11-15T12:23:27;5.87;;;3.30;;
11006;SDS011;8186;57.652;11.968;2022-11-15T12:25:57;3.83;;;2.60;;
11006;SDS011;8186;57.652;11.968;2022-11-15T12:28:31;6.27;;;3.13;;
11006;SDS011;8186;57.652;11.968;2022-11-15T12:31:03;3.27;;;2.97;;
11006;SDS011;8186;57.652;11.968;2022-11-15T12:33:34;4.00;;;3.00;;
11006;SDS011;8186;57.652;11.968;2022-11-15T12:36:03;6.50;;;2.83;;
11006;SDS011;8186;57.652;11.968;2022-11-15T12:38:52;6.37;;;2.80;;
11006;SDS011;8186;57.652;11.968;2022-11-15T12:41:30;4.80;;;2.70;;
11006;SDS011;8186;57.652;11.968;2022-11-15T12:44:04;4.63;;;2.60;;
11006;SDS011;8186;57.652;11.968;2022-11-15T12:49:43;2.97;;;2.20;;
11006;SDS011;8186;57.652;11.968;2022-11-15T12:52:11;3.80;;;2.50;;
11006;SDS011;8186;57.652;11.968;2022-11-15T12:54:54;3.43;;;2.33;;
11006;SDS011;8186;57.652;11.968;2022-11-15T12:57:29;3.13;;;2.43;;
11006;SDS011;8186;57.652;11.968;2022-11-15T13:06:01;8.17;;;2.60;;
11006;SDS011;8186;57.652;11.968;2022-11-15T13:08:43;3.30;;;2.53;;
11006;SDS011;8186;57.652;11.968;2022-11-15T13:20:11;2.17;;;1.97;;
11006;SDS011;8186;57.652;11.968;2022-11-15T13:22:45;2.60;;;2.00;;
11006;SDS011;8186;57.652;11.968;2022-11-15T13:28:26;4.10;;;1.70;;
11006;SDS011;8186;57.652;11.968;2022-11-15T13:30:58;2.47;;;2.00;;
11006;SDS011;8186;57.652;11.968;2022-11-15T13:33:28;3.70;;;1.70;;
11006;SDS011;8186;57.652;11.968;2022-11-15T13:35:59;3.10;;;1.80;;
11006;SDS011;8186;57.652;11.968;2022-11-15T13:38:28;2.07;;;1.60;;
11006;SDS011;8186;57.652;11.968;2022-11-15T13:40:57;3.27;;;1.70;;
11006;SDS011;8186;57.652;11.968;2022-11-15T13:43:31;2.00;;;1.40;;
11006;SDS011;8186;57.652;11.968;2022-11-15T13:46:10;1.80;;;1.40;;
11006;SDS011;8186;57.652;11.968;2022-11-15T13:48:39;1.27;;;1.00;;
11006;SDS011;8186;57.652;11.968;2022-11-15T13:51:09;1.20;;;1.00;;
11006;SDS011;8186;57.652;11.968;2022-11-15T13:53:40;2.47;;;1.20;;
11006;SDS011;8186;57.652;11.968;2022-11-15T13:56:08;2.13;;;1.10;;
11006;SDS011;8186;57.652;11.968;2022-11-15T13:58:37;1.73;;;1.40;;
11006;SDS011;8186;57.652;11.968;2022-11-15T14:01:05;3.20;;;1.50;;
11006;SDS011;8186;57.652;11.968;2022-11-15T14:03:33;1.53;;;1.00;;
11006;SDS011;8186;57.652;11.968;2022-11-15T14:06:03;1.93;;;1.30;;
11006;SDS011;8186;57.652;11.968;2022-11-15T14:08:35;2.00;;;1.43;;
11006;SDS011;8186;57.652;11.968;2022-11-15T14:11:06;2.23;;;1.47;;
11006;SDS011;8186;57.652;11.968;2022-11-15T14:13:39;2.07;;;1.40;;
11006;SDS011;8186;57.652;11.968;2022-11-15T14:16:17;1.50;;;1.40;;
11006;SDS011;8186;57.652;11.968;2022-11-15T14:18:46;1.40;;;1.30;;
11006;SDS011;8186;57.652;11.968;2022-11-15T14:21:14;1.37;;;1.27;;
11006;SDS011;8186;57.652;11.968;2022-11-15T14:23:43;3.77;;;1.70;;
11006;SDS011;8186;57.652;11.968;2022-11-15T14:28:54;1.70;;;1.33;;
11006;SDS011;8186;57.652;11.968;2022-11-15T14:31:21;2.47;;;1.77;;
11006;SDS011;8186;57.652;11.968;2022-11-15T14:33:50;3.03;;;1.67;;
11006;SDS011;8186;57.652;11.968;2022-11-15T14:36:18;1.57;;;1.23;;
11006;SDS011;8186;57.652;11.968;2022-11-15T14:38:47;1.30;;;1.20;;
11006;SDS011;8186;57.652;11.968;2022-11-15T14:41:19;1.30;;;1.07;;
11006;SDS011;8186;57.652;11.968;2022-11-15T14:43:47;1.30;;;0.97;;
11006;SDS011;8186;57.652;11.968;2022-11-15T14:46:15;2.30;;;0.90;;
11006;SDS011;8186;57.652;11.968;2022-11-15T14:48:42;1.03;;;0.83;;
11006;SDS011;8186;57.652;11.968;2022-11-15T14:51:10;2.20;;;0.90;;
11006;SDS011;8186;57.652;11.968;2022-11-15T14:53:39;0.83;;;0.83;;
11006;SDS011;8186;57.652;11.968;2022-11-15T14:56:08;1.10;;;0.80;;
11006;SDS011;8186;57.652;11.968;2022-11-15T14:58:35;1.00;;;0.80;;
11006;SDS011;8186;57.652;11.968;2022-11-15T15:01:03;0.60;;;0.60;;
11006;SDS011;8186;57.652;11.968;2022-11-15T15:03:37;0.53;;;0.53;;
11006;SDS011;8186;57.652;11.968;2022-11-15T15:06:05;1.17;;;0.50;;
11006;SDS011;8186;57.652;11.968;2022-11-15T15:08:33;0.70;;;0.70;;
11006;SDS011;8186;57.652;11.968;2022-11-15T15:11:00;0.93;;;0.70;;
11006;SDS011;8186;57.652;11.968;2022-11-15T15:13:29;1.00;;;0.80;;
11006;SDS011;8186;57.652;11.968;2022-11-15T15:15:56;1.00;;;0.70;;
11006;SDS011;8186;57.652;11.968;2022-11-15T15:18:23;0.90;;;0.90;;
11006;SDS011;8186;57.652;11.968;2022-11-15T15:20:53;1.27;;;0.90;;
11006;SDS011;8186;57.652;11.968;2022-11-15T15:23:23;1.00;;;0.90;;
11006;SDS011;8186;57.652;11.968;2022-11-15T15:25:56;0.63;;;0.63;;
11006;SDS011;8186;57.652;11.968;2022-11-15T15:28:26;1.33;;;0.67;;
11006;SDS011;8186;57.652;11.968;2022-11-15T15:30:54;1.13;;;0.73;;
11006;SDS011;8186;57.652;11.968;2022-11-15T15:33:22;0.97;;;0.80;;